Olympic Dam, South Australia

5:11 PM ACST on July 03, 2015 (GMT +0930)
Roxby Downs | | Change Station
CLOSE
Current Station
Personal Weather Station
Location: Roxby Downs, SOUTH AUSTRALIA
Elevation: 371 ft
Nearby Weather Stations

Elev 371 ft 30.57 °S, 136.91 °E | Updated 1 second ago

Overcast
Overcast
61.9 °F
Feels Like 61.9 °F
N
0.9
Wind Variable Wind from WSW
Gusts 2.5 mph

Today
High -- | Low -- °F
--% Chance of Precip.
Yesterday
High -- | Low -- °F
Precip. -- in
7:20 AM 5:33 PM
Full, 98% visible
Pressure 30.27 in
Visibility 6.2 miles
Clouds Overcast 5100 ft
Dew Point 43 °F
Humidity 49%
Rainfall 0.00 in
Snow Depth Not available.
UV 0.0 out of 12
Pollen Not available.
Air Quality Not available.
Flu Activity Not available.
METAR YPWR 030730Z AUTO 25007KT 9999 // OVC051 16/04 Q1025

More Conditions Fewer Conditions

Pressure 30.27 in
Visibility 6.2 miles
Clouds Overcast 5100 ft
Dew Point 43 °F
Humidity 49%
Rainfall 0.00 in
Snow Depth Not available.
UV 0.0 out of 12
Pollen Not available.
Air Quality Not available.
Flu Activity Not available.
METAR YPWR 030730Z AUTO 25007KT 9999 // OVC051 16/04 Q1025

More Conditions Fewer Conditions

10-Day Weather Forecast

×

Almanac

Astronomy

Jul. 03, 2015 Rise Set
Actual Time
Civil Twilight
Nautical Twilight
Astronomical Twilight
Moon
Length of Visible Light
Length of Day
Tomorrow will be .
, % of the Moon is Illuminated

Today's Extremes

Country Highs Country Lows

Community

WunderPhotos

Upload Photos

1,834,634 photos uploaded!

WunderBlogs® & News

Nearby

Air Quality

  Air Quality AQ Index Pollutant
Not available.

Snow Depth

Station Depth Elevation

Earthquake Activity

City Distance Mag. Time & Date
Minimum magnitude displayed is 2.5.

Coastal Water Temperatures

Place Temperature

Stations

Nearby Weather Stations

Station Location Temp. Windchill Dew Point Humidity Wind Precip. Elev Updated Type